Whiskey Mac — ZNOQ4 — position and weather

sailwx.info

Track history (hours):
 
Tides and Currents Weather Stations Pressure Air Temp Water Temp Dewpoint Dewpoint Depression Visibility Wind Speed Wind Dir Waves Ship Positions

Whiskey Mac

Last reported at 2017-Oct-30 13:46 UTC. Time now 2017-Nov-20 23:05 UTC.
Position N 54°40' W 005°40'.
Warning: this ship's position is 21 days out of date.

Length 13 m.

Type: Sailing vessel. MMSI: 235060898.

Date/timePositionNaut miles runAvg speedWind from/ knotsBaromVisibWave heightAir tempDewpointWater temp
2017-Oct-30 13:46N 54°40' W 005°40'0 1.6
2017-Oct-30 13:30N 54°40' W 005°41'3 5.6
2017-Oct-30 13:00N 54°41' W 005°45'5 6.0
2017-Oct-30 12:14N 54°38' W 005°52'1 6.2
2017-Oct-30 12:00N 54°37' W 005°54'1 1.5
2017-Oct-30 11:15N 54°36' W 005°55'0 0.0
2017-Oct-30 11:00N 54°36' W 005°55'0 0.0
2017-Oct-30 10:27N 54°36' W 005°55'  
2017-Oct-27 15:43N 54°36' W 005°55'0 0.0
2017-Oct-27 15:25N 54°36' W 005°55'1 1.0
2017-Oct-27 14:51N 54°37' W 005°54'2 5.6
2017-Oct-27 14:26N 54°39' W 005°52'3 6.1
2017-Oct-27 13:58N 54°40' W 005°48'3 6.1
2017-Oct-27 13:30N 54°41' W 005°43'2 3.4
2017-Oct-27 13:00N 54°40' W 005°40'0 0.0
2017-Oct-27 12:30N 54°40' W 005°40'  
Track history (hours):
 
Tides and Currents Weather Stations Pressure Air Temp Water Temp Dewpoint Dewpoint Depression Visibility Wind Speed Wind Dir Waves Ship Positions

Whiskey Mac

Last reported at 2017-Oct-30 13:46 UTC. Time now 2017-Nov-20 23:05 UTC.
Position N 54°40' W 005°40'.
Warning: this ship's position is 21 days out of date.

Length 13 m.

Type: Sailing vessel. MMSI: 235060898.

Date/timePositionNaut miles runAvg speedWind from/ knotsBaromVisibWave heightAir tempDewpointWater temp
2017-Oct-30 13:46N 54°40' W 005°40'0 1.6
2017-Oct-30 13:30N 54°40' W 005°41'3 5.6
2017-Oct-30 13:00N 54°41' W 005°45'5 6.0
2017-Oct-30 12:14N 54°38' W 005°52'1 6.2
2017-Oct-30 12:00N 54°37' W 005°54'1 1.5
2017-Oct-30 11:15N 54°36' W 005°55'0 0.0
2017-Oct-30 11:00N 54°36' W 005°55'0 0.0
2017-Oct-30 10:27N 54°36' W 005°55'  
2017-Oct-27 15:43N 54°36' W 005°55'0 0.0
2017-Oct-27 15:25N 54°36' W 005°55'1 1.0
2017-Oct-27 14:51N 54°37' W 005°54'2 5.6
2017-Oct-27 14:26N 54°39' W 005°52'3 6.1
2017-Oct-27 13:58N 54°40' W 005°48'3 6.1
2017-Oct-27 13:30N 54°41' W 005°43'2 3.4
2017-Oct-27 13:00N 54°40' W 005°40'0 0.0
2017-Oct-27 12:30N 54°40' W 005°40'  

Dump ship's entire track history